Time;durP1;ratioP1;P1;durP2;ratioP2;P2;SDS_P1;SDS_P2;PMS_P1;PMS_P2;Temp;Humidity;BMP_temperature;BMP_pressure;BME280_temperature;BME280_humidity;BME280_pressure;Samples;Min_cycle;Max_cycle;Signal;HPM_P1;HPM_P2
2022/10/05 00:02:18;;;;;;;11.70;8.10;;;;;;;14.72;90.55;101661.41;4917720;29;20048;-60
2022/10/05 00:04:43;;;;;;;11.18;8.13;;;;;;;14.70;90.63;101664.06;4917838;29;20047;-60
2022/10/05 00:07:14;;;;;;;12.65;8.68;;;;;;;14.69;90.65;101651.78;4917764;29;20080;-60
2022/10/05 00:09:40;;;;;;;11.77;8.75;;;;;;;14.70;90.83;101660.56;4917581;29;20084;-60
2022/10/05 00:12:17;;;;;;;12.35;9.10;;;;;;;14.68;90.88;101652.69;4917594;29;20072;-60
2022/10/05 00:14:44;;;;;;;12.20;8.13;;;;;;;14.68;91.08;101659.72;4917483;29;20064;-60
2022/10/05 00:17:19;;;;;;;12.90;8.93;;;;;;;14.64;91.18;101648.38;4917298;29;20474;-59
2022/10/05 00:19:50;;;;;;;16.27;8.93;;;;;;;14.69;91.05;101650.94;4917586;29;20047;-60
2022/10/05 00:22:18;;;;;;;13.50;9.07;;;;;;;14.68;91.35;101647.41;4917448;29;20051;-60
2022/10/05 00:24:44;;;;;;;11.85;8.30;;;;;;;14.69;91.02;101638.63;4917442;29;20040;-60
2022/10/05 00:27:17;;;;;;;13.70;9.35;;;;;;;14.56;91.20;101618.63;4917246;29;20036;-60
2022/10/05 00:29:43;;;;;;;12.27;8.45;;;;;;;14.61;91.61;101630.84;4917597;29;20047;-60
2022/10/05 00:32:09;;;;;;;13.30;9.20;;;;;;;14.58;91.64;101632.66;4917180;29;20036;-60
2022/10/05 00:34:34;;;;;;;12.57;9.38;;;;;;;14.57;91.78;101642.31;4917299;29;20036;-59
2022/10/05 00:36:59;;;;;;;13.20;9.10;;;;;;;14.56;91.64;101634.44;4916966;29;20028;-61
2022/10/05 00:39:25;;;;;;;12.73;9.40;;;;;;;14.59;91.71;101632.63;4917094;29;20040;-60
2022/10/05 00:42:13;;;;;;;14.10;9.45;;;;;;;14.51;92.08;101624.00;4917196;29;20039;-59
2022/10/05 00:44:45;;;;;;;13.82;9.18;;;;;;;14.53;92.22;101629.25;4917285;29;20039;-61
2022/10/05 00:47:25;;;;;;;15.10;9.27;;;;;;;14.56;91.82;101634.44;4917073;29;20043;-60
2022/10/05 00:50:06;;;;;;;12.32;8.45;;;;;;;14.53;92.39;101640.66;4917060;29;20032;-60
2022/10/05 00:53:10;;;;;;;15.25;8.60;;;;;;;14.52;92.40;101638.03;4916936;29;20043;-61
2022/10/05 00:55:47;;;;;;;12.95;9.00;;;;;;;14.50;92.57;101638.06;4916148;29;20518;-59
2022/10/05 00:58:21;;;;;;;12.50;9.10;;;;;;;14.49;92.71;101635.47;4916813;29;20122;-60
2022/10/05 01:01:08;;;;;;;14.30;9.60;;;;;;;14.47;92.94;101629.34;4916311;29;20028;-59
2022/10/05 01:03:40;;;;;;;11.93;9.23;;;;;;;14.46;93.00;101635.50;4916712;29;20044;-60
2022/10/05 01:06:32;;;;;;;13.57;8.93;;;;;;;14.48;92.90;101628.44;4915866;29;20036;-61
2022/10/05 01:09:17;;;;;;;15.10;9.10;;;;;;;14.40;93.31;101627.66;4916450;29;20040;-61
2022/10/05 01:11:55;;;;;;;14.63;9.73;;;;;;;14.44;93.15;101625.00;4916665;29;20471;-60
2022/10/05 01:14:31;;;;;;;13.45;9.07;;;;;;;14.33;93.29;101602.34;4916495;29;20110;-60
2022/10/05 01:17:12;;;;;;;14.63;9.10;;;;;;;14.43;93.44;101620.63;4916321;29;20036;-60
2022/10/05 01:19:49;;;;;;;11.77;9.05;;;;;;;14.41;93.61;101608.38;4916281;29;20043;-60
2022/10/05 01:22:39;;;;;;;12.88;9.00;;;;;;;14.38;93.68;101603.97;4916135;29;20040;-60
2022/10/05 01:25:29;;;;;;;11.98;8.82;;;;;;;14.43;93.28;101611.84;4916343;29;20095;-59
2022/10/05 01:28:28;;;;;;;12.77;8.80;;;;;;;14.41;93.54;101609.22;4916227;29;20048;-61
2022/10/05 01:31:03;;;;;;;11.80;8.93;;;;;;;14.36;93.72;101599.66;4916092;29;20498;-60
2022/10/05 01:33:39;;;;;;;12.15;9.40;;;;;;;14.29;93.94;101597.13;4916064;29;20051;-60
2022/10/05 01:36:27;;;;;;;14.20;9.18;;;;;;;14.28;94.10;101598.00;4916173;29;20044;-61
2022/10/05 01:39:10;;;;;;;13.55;9.13;;;;;;;14.31;93.79;101602.38;4916197;29;20032;-60
2022/10/05 01:42:07;;;;;;;13.23;9.15;;;;;;;14.32;94.09;101592.69;4915891;29;20051;-60
2022/10/05 01:44:45;;;;;;;14.55;9.27;;;;;;;14.29;94.17;101589.22;4912903;29;20071;-60
2022/10/05 01:47:24;;;;;;;12.32;9.32;;;;;;;14.29;94.42;101596.25;4916031;29;20040;-60
2022/10/05 01:50:06;;;;;;;13.20;9.48;;;;;;;14.32;94.27;101588.31;4915564;29;20046;-60
2022/10/05 01:52:42;;;;;;;12.38;8.82;;;;;;;14.29;94.33;101589.22;4915975;29;20032;-61
2022/10/05 01:55:41;;;;;;;16.38;9.30;;;;;;;14.30;94.33;101584.81;4915753;29;20321;-60
2022/10/05 01:58:31;;;;;;;16.33;9.45;;;;;;;14.29;93.97;101576.06;4915824;29;20046;-59
2022/10/05 02:01:13;;;;;;;14.23;9.90;;;;;;;14.30;94.25;101574.31;4915783;29;20036;-60
2022/10/05 02:03:52;;;;;;;13.00;9.40;;;;;;;14.29;94.23;101570.78;4915866;29;20039;-60
2022/10/05 02:06:21;;;;;;;13.60;10.00;;;;;;;14.28;94.69;101565.56;4915141;29;20032;-60
2022/10/05 02:09:14;;;;;;;11.07;9.93;;;;;;;14.28;94.36;101570.81;4915573;29;20044;-59
2022/10/05 02:11:44;;;;;;;14.25;9.55;;;;;;;14.26;94.70;101564.69;4915128;29;20081;-59
2022/10/05 02:14:14;;;;;;;15.55;9.85;;;;;;;14.24;94.74;101550.69;4915582;29;20118;-60
2022/10/05 02:16:42;;;;;;;14.15;9.43;;;;;;;14.24;94.71;101562.09;4914735;29;20047;-60
2022/10/05 02:19:22;;;;;;;14.95;9.05;;;;;;;14.25;94.71;101549.81;4915337;29;20063;-60
2022/10/05 02:21:53;;;;;;;12.32;8.80;;;;;;;14.25;94.80;101549.81;4915343;29;20036;-60
2022/10/05 02:24:27;;;;;;;13.20;8.85;;;;;;;14.25;94.96;101550.66;4915398;29;20133;-60
2022/10/05 02:26:55;;;;;;;13.07;8.80;;;;;;;14.23;95.10;101554.22;4915436;29;20064;-60
2022/10/05 02:29:24;;;;;;;12.68;8.95;;;;;;;14.26;94.72;101554.16;4915358;29;20043;-60
2022/10/05 02:31:56;;;;;;;11.88;9.25;;;;;;;14.24;94.57;101538.41;4915321;29;20139;-61
2022/10/05 02:34:30;;;;;;;12.75;8.98;;;;;;;14.24;94.90;101546.31;4915402;29;20391;-60
2022/10/05 02:37:23;;;;;;;13.90;8.30;;;;;;;14.25;94.72;101540.13;4915421;29;20048;-59
2022/10/05 02:40:17;;;;;;;14.13;8.32;;;;;;;14.24;94.90;101530.50;4915261;29;20025;-60
2022/10/05 02:43:06;;;;;;;11.30;8.05;;;;;;;14.24;94.85;101532.25;4915270;29;20032;-60
2022/10/05 02:45:46;;;;;;;11.88;8.25;;;;;;;14.23;94.94;101526.13;4915635;29;20333;-60
2022/10/05 02:48:23;;;;;;;12.73;8.30;;;;;;;14.21;95.22;101520.03;4915281;29;20032;-60
2022/10/05 02:50:59;;;;;;;11.35;8.30;;;;;;;14.24;94.74;101516.47;4915166;29;20050;-60
2022/10/05 02:53:43;;;;;;;10.35;7.45;;;;;;;14.22;95.20;101516.50;4915304;29;20043;-61
2022/10/05 02:56:25;;;;;;;10.23;7.90;;;;;;;14.10;95.51;101494.78;4915195;29;20415;-60
2022/10/05 02:58:56;;;;;;;11.13;8.43;;;;;;;14.16;95.51;101519.25;4914785;29;20028;-61
2022/10/05 03:01:39;;;;;;;11.07;7.97;;;;;;;14.19;95.56;101511.31;4915099;29;20079;-61
2022/10/05 03:04:10;;;;;;;12.52;7.90;;;;;;;14.18;95.64;101512.22;4915228;29;20039;-60
2022/10/05 03:06:46;;;;;;;12.80;8.20;;;;;;;14.16;95.39;101508.72;4915123;29;20044;-60
2022/10/05 03:09:14;;;;;;;12.25;8.40;;;;;;;14.09;95.85;101500.94;4914834;29;20051;-60
2022/10/05 03:11:52;;;;;;;13.73;8.45;;;;;;;13.99;96.08;101492.38;4915146;29;20395;-60
2022/10/05 03:14:20;;;;;;;11.82;8.18;;;;;;;14.07;95.99;101497.47;4915088;29;20594;-60
2022/10/05 03:16:54;;;;;;;12.20;8.45;;;;;;;14.06;96.21;101493.97;4915008;29;20379;-59
2022/10/05 03:19:41;;;;;;;12.45;8.25;;;;;;;14.04;96.35;101493.13;4914917;29;20345;-60
2022/10/05 03:22:36;;;;;;;12.70;8.60;;;;;;;14.08;96.17;101491.31;4914923;29;20064;-60
2022/10/05 03:25:25;;;;;;;14.00;8.27;;;;;;;14.07;96.13;101493.09;4914808;29;20040;-60
2022/10/05 03:28:00;;;;;;;12.38;8.43;;;;;;;14.03;96.42;101488.75;4915170;29;20058;-60
2022/10/05 03:30:32;;;;;;;11.93;8.43;;;;;;;14.03;96.37;101499.28;4918184;29;20047;-60
2022/10/05 03:33:17;;;;;;;11.80;8.23;;;;;;;14.05;96.42;101499.25;4918461;29;20428;-60
2022/10/05 03:36:11;;;;;;;11.35;8.88;;;;;;;14.04;96.42;101497.53;4918445;29;20032;-60
2022/10/05 03:38:51;;;;;;;14.43;8.82;;;;;;;14.01;96.42;101498.47;4918282;29;20032;-60
2022/10/05 03:41:26;;;;;;;11.98;8.40;;;;;;;13.99;96.49;101487.09;4918151;29;20024;-60
2022/10/05 03:44:15;;;;;;;14.32;8.60;;;;;;;14.01;96.70;101490.56;4918169;29;20066;-60
2022/10/05 03:47:02;;;;;;;12.15;9.02;;;;;;;14.03;96.82;101480.84;4917944;29;20032;-60
2022/10/05 03:50:05;;;;;;;14.60;9.15;;;;;;;14.03;96.53;101491.38;4918109;29;20036;-61
2022/10/05 03:52:49;;;;;;;;;;;;;;;14.07;95.91;101485.19;4918568;29;20043;-61
2022/10/05 03:55:30;;;;;;;13.95;8.25;;;;;;;14.05;96.03;101494.88;4917832;29;19919;-60
2022/10/05 03:58:01;;;;;;;17.77;9.18;;;;;;;14.04;96.61;101501.03;4917949;29;20072;-59
2022/10/05 04:00:29;;;;;;;12.52;8.65;;;;;;;14.01;96.70;101487.94;4917951;29;20040;-60
2022/10/05 04:03:03;;;;;;;12.38;8.32;;;;;;;14.05;96.78;101499.25;4918066;29;20040;-60
2022/10/05 04:05:34;;;;;;;11.90;8.93;;;;;;;14.03;96.96;101496.66;4917729;29;20072;-60
2022/10/05 04:08:08;;;;;;;12.18;8.68;;;;;;;14.08;96.69;101497.44;4917390;29;20115;-60
2022/10/05 04:10:48;;;;;;;12.57;8.95;;;;;;;14.04;96.65;101487.00;4917667;29;20056;-61
2022/10/05 04:13:27;;;;;;;14.55;9.20;;;;;;;14.07;96.76;101493.09;4917658;29;20036;-60
2022/10/05 04:16:05;;;;;;;16.13;9.60;;;;;;;14.03;96.96;101493.16;4917289;29;20456;-60
2022/10/05 04:19:08;;;;;;;14.73;9.68;;;;;;;14.04;96.89;101494.88;4917535;29;20813;-60
2022/10/05 04:21:44;;;;;;;13.45;9.88;;;;;;;14.00;96.95;101499.38;4902731;29;20107;-62
2022/10/05 04:24:17;;;;;;;14.27;10.20;;;;;;;13.96;97.13;101496.81;4917089;29;20051;-59
2022/10/05 04:26:53;;;;;;;14.30;9.75;;;;;;;14.00;96.92;101493.22;4917346;29;20103;-60
2022/10/05 04:29:32;;;;;;;17.45;10.43;;;;;;;13.98;97.09;101492.38;4917457;29;20111;-59
2022/10/05 04:32:22;;;;;;;15.13;9.93;;;;;;;14.00;97.19;101487.97;4917314;29;20059;-59
2022/10/05 04:34:56;;;;;;;14.85;9.57;;;;;;;13.95;97.26;101490.66;4917512;29;20176;-58
2022/10/05 04:37:56;;;;;;;14.05;9.10;;;;;;;14.02;96.89;101480.91;4917195;29;20071;-58
2022/10/05 04:40:37;;;;;;;15.13;9.18;;;;;;;13.94;97.40;101479.28;4916668;29;20047;-59
2022/10/05 04:43:29;;;;;;;14.07;8.70;;;;;;;14.01;97.03;101480.06;4916991;29;20099;-59
2022/10/05 04:46:19;;;;;;;16.02;9.32;;;;;;;13.98;97.02;101479.22;4917129;29;20035;-60
2022/10/05 04:49:06;;;;;;;14.40;9.23;;;;;;;13.93;96.98;101477.53;4917023;29;20040;-59
2022/10/05 04:51:39;;;;;;;13.43;8.30;;;;;;;13.89;96.49;101462.69;4916979;29;20167;-61
2022/10/05 04:54:36;;;;;;;14.85;8.38;;;;;;;13.98;96.82;101473.97;4917101;29;20036;-59
2022/10/05 04:57:09;;;;;;;14.02;8.02;;;;;;;13.92;96.28;101473.16;4881995;29;20044;-60
2022/10/05 04:59:45;;;;;;;11.20;7.53;;;;;;;13.96;96.55;101468.72;4916866;29;20040;-59
2022/10/05 05:02:19;;;;;;;10.15;7.03;;;;;;;13.99;96.29;101476.56;4916713;29;20044;-59
2022/10/05 05:05:13;;;;;;;9.65;7.68;;;;;;;14.05;96.34;101473.81;4916786;29;20046;-59
2022/10/05 05:08:00;;;;;;;12.13;8.27;;;;;;;14.02;95.69;101467.75;4901513;29;20526;-59
2022/10/05 05:10:34;;;;;;;11.30;7.35;;;;;;;14.04;94.98;101465.94;4916216;29;20379;-59
2022/10/05 05:13:24;;;;;;;11.50;7.15;;;;;;;14.06;95.61;101472.91;4916637;29;20020;-59
2022/10/05 05:15:49;;;;;;;10.10;6.93;;;;;;;14.01;95.54;101463.38;4916500;29;20028;-60
2022/10/05 05:18:52;;;;;;;8.97;6.63;;;;;;;14.03;95.46;101469.47;4915941;29;20044;-59
2022/10/05 05:21:29;;;;;;;9.25;6.18;;;;;;;13.99;95.25;101468.69;4916118;29;20287;-61
2022/10/05 05:24:04;;;;;;;8.60;6.28;;;;;;;13.99;95.31;101470.44;4916132;29;20039;-61
2022/10/05 05:26:56;;;;;;;9.77;6.53;;;;;;;13.96;95.09;101463.47;4916048;29;20376;-59
2022/10/05 05:29:52;;;;;;;12.75;7.43;;;;;;;13.99;95.37;101466.03;4916217;29;20044;-62
2022/10/05 05:32:54;;;;;;;11.52;6.85;;;;;;;14.00;95.23;101464.28;4916204;29;20071;-61
2022/10/05 05:35:22;;;;;;;;;;;;;;;14.16;93.72;101455.22;4916281;29;20040;-62
2022/10/05 05:37:48;;;;;;;11.30;6.70;;;;;;;13.94;95.24;101452.09;4916181;29;20353;-61
2022/10/05 05:40:26;;;;;;;10.07;6.68;;;;;;;13.96;95.38;101452.06;4915977;29;20156;-60
2022/10/05 05:42:58;;;;;;;10.38;6.80;;;;;;;13.94;95.52;101452.97;4916045;29;20031;-60
2022/10/05 05:45:26;;;;;;;;;;;;;;;13.99;95.14;101452.03;4915827;29;20391;-59
2022/10/05 05:47:53;;;;;;;7.72;5.93;;;;;;;13.93;95.07;101450.34;4915789;29;19929;-58
2022/10/05 05:50:46;;;;;;;9.48;6.20;;;;;;;13.91;95.44;101446.88;4915903;29;20067;-59
2022/10/05 05:53:44;;;;;;;7.68;6.00;;;;;;;13.94;95.47;101438.94;4888854;29;20447;-59
2022/10/05 05:56:44;;;;;;;9.48;5.47;;;;;;;13.96;95.12;101447.66;4908003;29;20080;-58
2022/10/05 05:59:50;;;;;;;8.10;5.63;;;;;;;13.86;94.91;101427.66;4894477;29;20044;-59
2022/10/05 06:02:22;;;;;;;8.07;5.65;;;;;;;13.95;94.25;101435.41;4875343;29;20037;-58
2022/10/05 06:04:57;;;;;;;7.68;5.47;;;;;;;13.93;94.99;101443.31;4910415;29;20052;-59
2022/10/05 06:07:28;;;;;;;7.97;5.22;;;;;;;13.94;94.85;101442.44;4915649;29;20032;-60
2022/10/05 06:10:03;;;;;;;8.35;5.30;;;;;;;13.93;94.46;101438.06;4915502;29;20060;-59
2022/10/05 06:12:42;;;;;;;9.75;5.30;;;;;;;14.00;94.11;101441.47;4915575;29;20047;-59
2022/10/05 06:15:29;;;;;;;7.18;5.40;;;;;;;13.98;93.98;101439.75;4915564;29;20043;-59
2022/10/05 06:17:59;;;;;;;9.20;5.07;;;;;;;13.99;94.32;101445.00;4915483;29;20039;-61
2022/10/05 06:20:30;;;;;;;8.50;4.88;;;;;;;14.00;94.38;101430.94;4915723;29;20447;-59
2022/10/05 06:23:00;;;;;;;8.57;5.30;;;;;;;14.02;94.41;101439.69;4915394;29;20063;-61
2022/10/05 06:25:53;;;;;;;6.60;4.97;;;;;;;14.04;94.09;101434.38;4915409;29;20078;-59
2022/10/05 06:28:19;;;;;;;7.70;5.05;;;;;;;14.05;93.75;101436.09;4915368;29;20070;-60
2022/10/05 06:31:02;;;;;;;8.50;5.20;;;;;;;14.07;94.19;101440.44;4915512;29;20449;-63
2022/10/05 06:33:50;;;;;;;10.60;5.68;;;;;;;14.06;94.10;101441.34;4907496;29;20051;-60
2022/10/05 06:36:34;;;;;;;10.35;5.20;;;;;;;14.17;93.57;101435.91;4896528;29;20047;-59
2022/10/05 06:39:16;;;;;;;8.68;5.47;;;;;;;14.09;93.63;101422.88;4896520;29;20028;-60
2022/10/05 06:42:07;;;;;;;6.93;5.32;;;;;;;14.14;93.60;101436.81;4896560;29;20044;-60
2022/10/05 06:45:10;;;;;;;7.70;5.28;;;;;;;14.16;93.47;101434.16;4896467;29;20760;-60
2022/10/05 06:48:04;;;;;;;9.90;5.90;;;;;;;14.16;93.33;101445.56;4896063;29;20052;-61
2022/10/05 06:50:41;;;;;;;9.00;5.70;;;;;;;14.15;93.55;101429.78;4895862;29;20131;-65
2022/10/05 06:53:19;;;;;;;11.25;5.60;;;;;;;14.18;93.85;101433.25;4896390;29;20063;-61
2022/10/05 06:55:51;;;;;;;11.23;6.18;;;;;;;14.22;93.58;101441.91;4896245;29;20056;-59
2022/10/05 06:58:28;;;;;;;11.50;5.85;;;;;;;14.26;93.24;101441.84;4896052;29;20033;-59
2022/10/05 07:01:11;;;;;;;9.52;5.68;;;;;;;14.29;93.38;101441.78;4896083;29;20436;-59
2022/10/05 07:04:15;;;;;;;10.05;5.78;;;;;;;14.29;93.28;101444.41;4897751;29;20032;-58
2022/10/05 07:07:06;;;;;;;9.75;5.78;;;;;;;14.32;92.96;101442.63;4899489;29;20039;-60
2022/10/05 07:09:59;;;;;;;10.48;5.70;;;;;;;14.37;92.81;101440.78;4893811;29;20103;-59
2022/10/05 07:12:36;;;;;;;9.40;5.43;;;;;;;14.41;92.60;101438.06;4879609;29;20131;-59
2022/10/05 07:15:26;;;;;;;8.93;5.22;;;;;;;14.50;92.32;101429.13;4918499;29;20087;-60
2022/10/05 07:18:07;;;;;;;8.80;5.93;;;;;;;14.51;91.80;101425.59;4918541;29;20040;-60
2022/10/05 07:20:44;;;;;;;7.68;6.03;;;;;;;14.42;91.68;101407.34;4918738;29;20428;-59
2022/10/05 07:23:41;;;;;;;7.47;4.75;;;;;;;14.59;91.36;101426.28;4918507;29;20051;-59
2022/10/05 07:26:31;;;;;;;7.88;4.78;;;;;;;14.67;91.96;101437.56;4918505;29;20075;-59
2022/10/05 07:28:56;;;;;;;8.38;5.40;;;;;;;14.68;91.46;101436.66;4918408;29;20118;-59
2022/10/05 07:31:55;;;;;;;7.27;4.60;;;;;;;14.79;90.86;101436.44;4918072;29;20124;-59
2022/10/05 07:34:42;;;;;;;9.27;5.00;;;;;;;14.73;90.83;101432.13;4918176;29;20452;-59
2022/10/05 07:40:19;;;;;;;5.45;4.20;;;;;;;14.80;91.42;101444.31;4918478;29;20118;-60
2022/10/05 07:42:58;;;;;;;8.88;5.00;;;;;;;14.84;90.18;101437.19;4918256;29;20054;-60
2022/10/05 07:46:03;;;;;;;7.22;4.65;;;;;;;14.90;90.20;101434.41;4918268;29;20155;-59
2022/10/05 07:48:54;;;;;;;7.72;4.32;;;;;;;15.00;90.04;101441.25;4917962;29;20123;-59
2022/10/05 07:51:40;;;;;;;7.57;4.55;;;;;;;15.02;89.95;101442.06;4917894;29;20075;-59
2022/10/05 07:54:14;;;;;;;8.88;4.95;;;;;;;15.01;89.82;101444.75;4918078;29;20035;-59
2022/10/05 07:56:42;;;;;;;9.35;4.40;;;;;;;15.03;89.78;101448.22;4917418;29;20063;-59
2022/10/05 07:59:30;;;;;;;7.90;4.85;;;;;;;15.19;89.49;101441.69;4915286;29;20466;-59
2022/10/05 08:02:13;;;;;;;6.07;4.78;;;;;;;15.07;89.24;101442.81;4917648;29;20033;-58
2022/10/05 08:05:12;;;;;;;7.97;4.43;;;;;;;15.20;88.82;101441.66;4917771;29;20111;-59
2022/10/05 08:07:38;;;;;;;5.82;4.82;;;;;;;15.16;88.18;101437.34;4914472;29;20123;-59
2022/10/05 08:10:37;;;;;;;6.63;4.30;;;;;;;15.23;89.07;101448.63;4917271;29;20056;-59
2022/10/05 08:13:18;;;;;;;8.38;4.47;;;;;;;15.28;88.84;101441.47;4917710;29;20044;-59
2022/10/05 08:15:49;;;;;;;5.93;4.80;;;;;;;15.34;87.84;101436.06;4917439;29;20027;-58
2022/10/05 08:18:41;;;;;;;5.82;4.45;;;;;;;15.40;88.21;101441.19;4917435;29;20356;-59
2022/10/05 08:21:10;;;;;;;7.70;4.10;;;;;;;15.47;87.01;101434.84;4917119;29;20415;-59
2022/10/05 08:23:49;;;;;;;5.38;4.20;;;;;;;15.52;86.83;101433.00;4913306;29;20068;-59
2022/10/05 08:26:33;;;;;;;8.00;4.10;;;;;;;15.53;86.81;101421.53;4890658;29;20067;-59
2022/10/05 08:29:56;;;;;;;5.90;3.83;;;;;;;15.61;86.74;101424.88;4897188;29;20032;-59
2022/10/05 08:32:44;;;;;;;6.05;4.03;;;;;;;15.64;86.69;101414.22;4852288;29;20178;-58
2022/10/05 08:35:19;;;;;;;6.28;3.85;;;;;;;15.73;86.61;101418.44;4858559;29;20041;-58
2022/10/05 08:37:46;;;;;;;6.78;4.07;;;;;;;15.81;86.29;101410.31;4867730;29;20136;-58
2022/10/05 08:40:20;;;;;;;5.57;4.00;;;;;;;15.84;86.10;101404.94;4879710;29;20053;-59
2022/10/05 08:43:10;;;;;;;5.65;3.80;;;;;;;15.93;86.56;101408.19;4879575;29;20033;-59
2022/10/05 08:46:10;;;;;;;5.30;3.92;;;;;;;16.07;86.59;101413.13;4879557;29;20052;-59
2022/10/05 08:49:08;;;;;;;6.97;3.67;;;;;;;16.08;85.61;101412.22;4839554;29;20065;-58
2022/10/05 08:52:09;;;;;;;10.50;4.22;;;;;;;16.04;84.34;101392.09;4892111;29;20056;-59
2022/10/05 08:54:51;;;;;;;7.90;3.65;;;;;;;16.10;84.73;101405.13;4898145;29;20051;-59
2022/10/05 08:57:48;;;;;;;5.10;3.90;;;;;;;16.19;84.61;101406.63;4897963;29;20352;-58
2022/10/05 09:00:27;;;;;;;7.22;4.05;;;;;;;16.18;83.37;101405.78;4897621;29;20412;-59
2022/10/05 09:03:23;;;;;;;7.15;3.25;;;;;;;16.25;84.11;101404.72;4897567;29;20478;-59
2022/10/05 09:06:22;;;;;;;4.28;3.20;;;;;;;16.40;84.25;101389.34;4897696;29;20041;-59
2022/10/05 09:09:21;;;;;;;5.40;3.70;;;;;;;16.46;84.14;101391.78;4906935;29;20047;-58
2022/10/05 09:12:05;;;;;;;8.30;3.25;;;;;;;16.48;83.04;101398.75;4916332;29;20468;-60
2022/10/05 09:14:57;;;;;;;7.18;3.35;;;;;;;16.52;83.28;101394.25;4916444;29;20048;-58
2022/10/05 09:17:38;;;;;;;6.22;3.47;;;;;;;16.60;81.91;101386.97;4916465;29;20031;-58
2022/10/05 09:20:21;;;;;;;4.50;3.42;;;;;;;16.67;82.14;101388.53;4892294;29;20036;-58
2022/10/05 09:22:57;;;;;;;7.70;3.58;;;;;;;16.70;81.07;101391.09;4896632;29;20456;-58
2022/10/05 09:25:49;;;;;;;6.85;3.50;;;;;;;16.73;82.10;101384.88;4897413;29;20032;-58
2022/10/05 09:28:33;;;;;;;6.97;3.40;;;;;;;16.80;80.99;101381.09;4897268;29;20036;-58
2022/10/05 09:31:16;;;;;;;3.67;3.13;;;;;;;16.90;81.22;101385.22;4897237;29;20036;-57
2022/10/05 09:34:14;;;;;;;4.82;3.30;;;;;;;16.96;81.39;101385.91;4897155;29;20047;-57
2022/10/05 09:37:12;;;;;;;5.00;3.22;;;;;;;16.97;81.50;101387.59;4853917;29;20049;-58
2022/10/05 09:39:40;;;;;;;3.78;2.97;;;;;;;16.99;80.08;101380.50;4853602;29;20074;-57
2022/10/05 09:42:14;;;;;;;6.60;3.40;;;;;;;17.07;81.39;101393.47;4897210;29;20515;-59
2022/10/05 09:44:55;;;;;;;4.50;2.95;;;;;;;17.07;79.21;101387.31;4896903;29;20032;-58
2022/10/05 09:47:52;;;;;;;5.53;3.60;;;;;;;17.04;79.46;101383.00;4896886;29;20123;-59
2022/10/05 09:50:36;;;;;;;8.60;3.10;;;;;;;17.11;79.49;101379.25;4851467;29;20059;-59
2022/10/05 09:53:31;;;;;;;5.25;3.17;;;;;;;17.11;80.57;101375.75;4897126;29;20044;-61
2022/10/05 09:56:04;;;;;;;8.98;3.40;;;;;;;16.98;80.06;101352.31;4896515;29;20119;-61
2022/10/05 09:58:50;;;;;;;4.70;2.90;;;;;;;17.20;79.43;101368.38;4896665;29;20421;-59
2022/10/05 10:01:24;;;;;;;5.13;2.80;;;;;;;17.29;79.16;101367.22;4896967;29;20075;-58
2022/10/05 10:04:11;;;;;;;3.55;2.95;;;;;;;17.42;79.94;101357.97;4897020;29;20045;-58
2022/10/05 10:07:03;;;;;;;7.38;3.15;;;;;;;17.50;78.99;101350.59;4896471;29;20777;-58
2022/10/05 10:09:51;;;;;;;8.80;3.60;;;;;;;17.51;77.33;101349.69;4900863;29;20107;-58
2022/10/05 10:12:47;;;;;;;7.85;2.90;;;;;;;17.57;78.07;101346.84;4915369;29;20440;-59
2022/10/05 10:15:31;;;;;;;5.72;2.90;;;;;;;17.55;76.78;101351.31;4915726;29;20444;-59
2022/10/05 10:18:17;;;;;;;5.28;3.20;;;;;;;17.64;77.23;101348.41;4915436;29;20379;-58
2022/10/05 10:21:10;;;;;;;5.25;3.05;;;;;;;17.67;77.43;101344.75;4915408;29;20036;-58
2022/10/05 10:23:53;;;;;;;6.25;2.95;;;;;;;17.80;77.41;101343.44;4915268;29;20059;-58
2022/10/05 10:26:22;;;;;;;5.75;2.83;;;;;;;17.79;76.55;101331.13;4915546;29;20064;-58
2022/10/05 10:28:53;;;;;;;7.03;3.13;;;;;;;17.88;76.12;101327.28;4915355;29;20036;-58
2022/10/05 10:31:44;;;;;;;7.55;2.90;;;;;;;17.93;77.45;101326.19;4915236;29;20048;-58
2022/10/05 10:34:37;;;;;;;5.28;3.03;;;;;;;17.98;77.15;101320.75;4915384;29;20119;-58
2022/10/05 10:37:33;;;;;;;6.88;3.00;;;;;;;18.01;76.57;101316.16;4914467;29;20123;-58
2022/10/05 10:40:07;;;;;;;4.45;2.65;;;;;;;18.01;77.13;101316.16;4918832;29;20040;-59
2022/10/05 10:42:43;;;;;;;4.03;2.67;;;;;;;18.12;76.16;101317.56;4919250;29;20036;-59
2022/10/05 10:45:25;;;;;;;6.82;2.65;;;;;;;18.26;76.18;101315.28;4919033;29;20856;-58
2022/10/05 10:47:59;;;;;;;5.03;2.53;;;;;;;18.39;75.63;101311.22;4917704;29;20028;-59
2022/10/05 10:50:43;;;;;;;4.82;2.90;;;;;;;18.50;74.33;101303.75;4919078;29;20039;-59
2022/10/05 10:53:17;;;;;;;6.35;3.00;;;;;;;18.55;74.51;101301.75;4919245;29;20056;-59
2022/10/05 10:56:08;;;;;;;5.65;2.85;;;;;;;18.63;74.88;101304.16;4918956;29;20048;-59
2022/10/05 10:59:22;;;;;;;5.78;2.47;;;;;;;18.67;74.34;101295.16;4908901;29;20048;-58
2022/10/05 11:02:10;;;;;;;5.60;2.40;;;;;;;18.73;74.26;101290.47;4913628;29;20036;-58
2022/10/05 11:05:02;;;;;;;3.50;2.40;;;;;;;18.83;73.76;101282.16;4918654;29;20055;-59
2022/10/05 11:07:36;;;;;;;5.53;2.67;;;;;;;18.94;73.68;101283.44;4918783;29;20416;-58
2022/10/05 11:10:08;;;;;;;3.47;2.42;;;;;;;19.06;72.78;101290.88;4918119;29;20140;-58
2022/10/05 11:13:06;;;;;;;4.85;2.40;;;;;;;19.17;73.82;101273.66;4917584;29;20467;-59
2022/10/05 11:15:54;;;;;;;5.70;2.45;;;;;;;19.26;71.35;101283.88;4918205;29;20055;-59
2022/10/05 11:18:35;;;;;;;5.78;2.22;;;;;;;19.28;72.28;101282.03;4916813;29;20087;-59
2022/10/05 11:21:09;;;;;;;5.78;2.40;;;;;;;19.27;70.92;101289.13;4918104;29;20055;-59
2022/10/05 11:23:56;;;;;;;3.70;2.03;;;;;;;19.24;72.54;101272.47;4916283;29;20107;-58
2022/10/05 11:26:59;;;;;;;3.88;2.08;;;;;;;19.41;71.25;101285.88;4917082;29;20063;-62
2022/10/05 11:29:58;;;;;;;4.00;2.28;;;;;;;19.30;71.82;101280.16;4917578;29;20040;-60
2022/10/05 11:32:59;;;;;;;5.30;2.22;;;;;;;19.08;71.42;101265.16;4913900;29;20048;-59
2022/10/05 11:35:48;;;;;;;3.05;2.08;;;;;;;19.17;71.87;101253.31;4918811;29;20048;-58
2022/10/05 11:38:47;;;;;;;3.63;2.30;;;;;;;19.19;72.37;101261.19;4917963;29;20046;-58
2022/10/05 11:41:31;;;;;;;4.43;2.03;;;;;;;19.19;73.02;101256.75;4918343;29;20150;-59
2022/10/05 11:44:21;;;;;;;4.15;1.80;;;;;;;19.32;72.54;101251.78;4918347;29;20055;-59
2022/10/05 11:47:17;;;;;;;5.68;2.20;;;;;;;19.39;72.22;101238.16;4918038;29;20051;-59
2022/10/05 11:50:07;;;;;;;4.00;2.00;;;;;;;19.42;71.96;101231.84;4917932;29;20047;-59
2022/10/05 11:52:57;;;;;;;3.88;2.20;;;;;;;19.61;70.33;101240.78;4917344;29;20047;-58
2022/10/05 11:55:40;;;;;;;3.60;1.90;;;;;;;19.68;71.10;101236.06;4917808;29;20036;-58
2022/10/05 11:58:14;;;;;;;3.17;1.88;;;;;;;19.78;69.88;101209.00;4918349;29;20046;-59
2022/10/05 12:00:45;;;;;;;2.97;2.00;;;;;;;19.84;69.84;101210.53;4917931;29;20032;-59
2022/10/05 12:03:57;;;;;;;4.37;1.97;;;;;;;19.99;71.14;101219.59;4917764;29;20036;-59
2022/10/05 12:06:52;;;;;;;7.20;2.15;;;;;;;20.02;68.64;101209.69;4895472;29;20362;-58
2022/10/05 12:09:24;;;;;;;2.58;1.80;;;;;;;19.93;68.25;101201.25;4917200;29;20140;-59
2022/10/05 12:12:06;;;;;;;3.33;1.90;;;;;;;20.06;68.39;101197.13;4917426;29;20046;-58
2022/10/05 12:15:07;;;;;;;3.53;1.60;;;;;;;20.10;68.08;101196.00;4917748;29;20036;-58
2022/10/05 12:17:45;;;;;;;5.32;1.65;;;;;;;20.26;67.26;101186.38;4917563;29;20032;-59
2022/10/05 12:20:19;;;;;;;5.55;2.08;;;;;;;20.34;66.31;101186.03;4917462;29;20032;-59
2022/10/05 12:22:57;;;;;;;2.88;1.60;;;;;;;20.46;66.97;101186.31;4917653;29;20031;-59
2022/10/05 12:25:38;;;;;;;4.68;1.70;;;;;;;20.49;67.73;101180.84;4917591;29;20035;-59
2022/10/05 12:28:09;;;;;;;2.10;1.58;;;;;;;20.48;66.71;101180.91;4917331;29;20036;-59
2022/10/05 12:31:09;;;;;;;4.10;1.80;;;;;;;20.35;66.07;101182.44;4917460;29;20079;-59
2022/10/05 12:33:52;;;;;;;2.58;1.70;;;;;;;20.07;66.13;101177.59;4917435;29;20032;-59
2022/10/05 12:36:28;;;;;;;1.92;1.60;;;;;;;19.88;68.00;101168.75;4916940;29;20040;-59